createdAt,value
2023-01-11T00:00:01.710Z,22.10
2023-01-11T00:02:34.949Z,22.10
2023-01-11T00:05:06.655Z,22.10
2023-01-11T00:07:37.936Z,22.10
2023-01-11T00:10:12.905Z,22.10
2023-01-11T00:12:43.951Z,22.10
2023-01-11T00:15:15.289Z,22.00
2023-01-11T00:17:46.335Z,22.00
2023-01-11T00:20:18.862Z,22.00
2023-01-11T00:22:49.895Z,22.00
2023-01-11T00:25:20.972Z,22.00
2023-01-11T00:30:27.497Z,22.00
2023-01-11T00:32:59.823Z,22.00
2023-01-11T00:35:40.747Z,21.90
2023-01-11T00:38:13.088Z,21.90
2023-01-11T00:40:44.150Z,22.10
2023-01-11T00:43:32.452Z,22.00
2023-01-11T00:46:21.664Z,21.90
2023-01-11T00:48:53.177Z,22.00
2023-01-11T00:51:25.601Z,21.90
2023-01-11T01:06:49.902Z,21.60
2023-01-11T01:09:21.332Z,21.60
2023-01-11T01:11:52.826Z,21.50
2023-01-11T01:14:31.062Z,21.40
2023-01-11T01:17:10.408Z,21.30
2023-01-11T01:19:42.282Z,21.30
2023-01-11T01:22:13.283Z,21.30
2023-01-11T01:24:44.756Z,21.30
2023-01-11T01:27:17.041Z,21.20
2023-01-11T01:29:48.295Z,21.20
2023-01-11T01:32:19.303Z,21.20
2023-01-11T01:34:50.340Z,21.20
2023-01-11T01:37:21.458Z,21.20
2023-01-11T01:39:53.177Z,21.20
2023-01-11T01:42:25.331Z,21.20
2023-01-11T01:45:08.737Z,21.20
2023-01-11T01:47:45.021Z,21.20
2023-01-11T01:50:27.118Z,21.20
2023-01-11T01:53:00.644Z,21.20
2023-01-11T01:55:36.844Z,21.20
2023-01-11T01:58:10.571Z,21.20
2023-01-11T02:00:47.102Z,21.20
2023-01-11T02:03:20.782Z,21.20
2023-01-11T02:05:53.134Z,21.20
2023-01-11T02:08:35.491Z,21.20
2023-01-11T02:11:08.335Z,21.20
2023-01-11T02:13:41.078Z,21.30
2023-01-11T02:16:12.189Z,21.30
2023-01-11T02:18:43.272Z,21.30
2023-01-11T02:21:31.644Z,21.30
2023-01-11T02:24:25.799Z,21.30
2023-01-11T02:27:10.987Z,21.30
2023-01-11T02:29:50.376Z,21.30
2023-01-11T02:32:35.733Z,21.30
2023-01-11T02:35:15.412Z,21.40
2023-01-11T02:38:03.973Z,21.30
2023-01-11T02:40:44.708Z,21.40
2023-01-11T02:43:35.588Z,21.40
2023-01-11T02:46:14.976Z,21.50
2023-01-11T02:48:50.970Z,21.50
2023-01-11T02:51:27.880Z,21.60
2023-01-11T02:54:00.823Z,21.60
2023-01-11T02:56:33.541Z,21.60
2023-01-11T02:59:06.501Z,21.60
2023-01-11T03:01:53.441Z,21.60
2023-01-11T03:04:37.187Z,21.70
2023-01-11T03:07:28.183Z,21.70
2023-01-11T03:10:17.683Z,21.70
2023-01-11T03:13:02.990Z,21.70
2023-01-11T03:16:05.136Z,21.70
2023-01-11T03:18:57.870Z,21.70
2023-01-11T03:21:53.181Z,21.70
2023-01-11T03:24:32.187Z,21.70
2023-01-11T03:27:40.271Z,21.70
2023-01-11T03:32:58.280Z,21.70
2023-01-11T03:35:48.332Z,21.70
2023-01-11T03:38:24.513Z,21.70
2023-01-11T03:41:00.540Z,21.70
2023-01-11T03:43:33.747Z,21.70
2023-01-11T03:46:12.901Z,21.70
2023-01-11T03:48:49.047Z,21.70
2023-01-11T03:51:24.113Z,21.70
2023-01-11T03:54:00.106Z,21.70
2023-01-11T03:56:47.105Z,21.70
2023-01-11T03:59:18.971Z,21.80
2023-01-11T04:01:50.017Z,21.80
2023-01-11T04:04:21.377Z,21.80
2023-01-11T04:06:52.637Z,21.80
2023-01-11T04:09:23.830Z,21.80
2023-01-11T04:11:55.537Z,21.80
2023-01-11T04:14:26.806Z,21.80
2023-01-11T04:16:59.156Z,21.80
2023-01-11T04:19:30.167Z,21.90
2023-01-11T04:22:01.384Z,21.90
2023-01-11T04:24:32.421Z,21.90
2023-01-11T04:27:21.437Z,21.90
2023-01-11T04:29:52.877Z,21.90
2023-01-11T04:32:24.385Z,21.90
2023-01-11T04:34:56.878Z,21.90
2023-01-11T04:37:31.243Z,21.90
2023-01-11T04:40:03.739Z,22.00
2023-01-11T04:42:36.533Z,22.00
2023-01-11T04:45:09.781Z,22.00
2023-01-11T04:47:40.756Z,22.00
2023-01-11T04:50:14.784Z,22.00
2023-01-11T04:52:45.303Z,22.00
2023-01-11T04:55:16.770Z,22.00
2023-01-11T04:57:53.159Z,22.00
2023-01-11T05:00:24.523Z,22.00
2023-01-11T05:02:55.923Z,22.00
2023-01-11T05:05:34.411Z,22.00
2023-01-11T05:08:09.630Z,22.00
2023-01-11T05:10:43.989Z,21.90
2023-01-11T05:13:15.074Z,21.90
2023-01-11T05:15:46.131Z,21.90
2023-01-11T05:18:18.766Z,22.00
2023-01-11T05:20:53.228Z,22.00
2023-01-11T05:23:31.169Z,22.00
2023-01-11T05:26:04.393Z,22.00
2023-01-11T05:28:35.617Z,22.00
2023-01-11T05:31:07.043Z,22.00
2023-01-11T05:33:38.679Z,22.00
2023-01-11T05:36:12.326Z,22.00
2023-01-11T05:38:43.857Z,22.00
2023-01-11T05:41:15.204Z,22.00
2023-01-11T05:44:05.784Z,22.00
2023-01-11T05:46:39.248Z,22.00
2023-01-11T05:49:11.597Z,22.00
2023-01-11T05:51:43.806Z,22.00
2023-01-11T05:54:17.006Z,21.90
2023-01-11T05:56:48.241Z,21.90
2023-01-11T05:59:20.465Z,21.90
2023-01-11T06:01:52.837Z,21.90
2023-01-11T06:04:26.306Z,21.90
2023-01-11T06:06:56.651Z,21.90
2023-01-11T06:09:28.823Z,21.90
2023-01-11T06:12:00.983Z,21.90
2023-01-11T06:14:33.379Z,21.90
2023-01-11T06:17:05.677Z,21.90
2023-01-11T06:19:39.907Z,21.90
2023-01-11T06:22:11.439Z,21.90
2023-01-11T06:24:43.542Z,21.90
2023-01-11T06:27:15.428Z,21.90
2023-01-11T06:29:46.478Z,21.90
2023-01-11T06:32:17.529Z,21.90
2023-01-11T06:34:52.237Z,21.90
2023-01-11T06:37:24.834Z,22.00
2023-01-11T06:39:55.960Z,21.90
2023-01-11T06:42:27.242Z,21.90
2023-01-11T06:44:58.249Z,21.90
2023-01-11T06:47:32.812Z,21.90
2023-01-11T06:50:04.258Z,22.00
2023-01-11T06:55:23.002Z,22.00
2023-01-11T06:57:57.479Z,22.10
2023-01-11T07:00:28.773Z,22.10
2023-01-11T07:03:01.543Z,22.10
2023-01-11T07:05:34.225Z,22.10
2023-01-11T07:08:05.473Z,22.10
2023-01-11T07:10:36.709Z,22.10
2023-01-11T07:13:08.289Z,22.10
2023-01-11T07:15:39.860Z,22.10
2023-01-11T07:18:13.581Z,22.20
2023-01-11T07:20:44.455Z,22.10
2023-01-11T07:23:17.027Z,22.10
2023-01-11T07:25:49.480Z,22.10
2023-01-11T07:28:20.568Z,22.10
2023-01-11T07:30:59.557Z,22.10
2023-01-11T07:33:28.740Z,22.10
2023-01-11T07:36:01.125Z,22.10
2023-01-11T07:38:32.639Z,22.10
2023-01-11T07:41:06.291Z,22.20
2023-01-11T07:43:37.967Z,22.20
2023-01-11T07:46:12.235Z,22.20
2023-01-11T07:48:44.727Z,22.20
2023-01-11T07:51:18.183Z,22.20
2023-01-11T07:53:49.476Z,22.20
2023-01-11T07:56:29.025Z,22.20
2023-01-11T07:59:00.836Z,22.20
2023-01-11T08:01:33.175Z,22.20
2023-01-11T08:04:07.051Z,22.30
2023-01-11T08:06:38.421Z,22.20
2023-01-11T08:09:09.789Z,22.20
2023-01-11T08:12:03.543Z,22.20
2023-01-11T08:14:44.594Z,22.20
2023-01-11T08:17:17.323Z,22.20
2023-01-11T08:19:48.403Z,22.30
2023-01-11T08:22:19.591Z,22.30
2023-01-11T08:24:50.663Z,22.20
2023-01-11T08:27:24.875Z,22.20
2023-01-11T08:29:56.390Z,22.30
2023-01-11T08:32:33.548Z,22.20
2023-01-11T08:35:05.331Z,22.20
2023-01-11T08:37:36.348Z,22.30
2023-01-11T08:40:07.819Z,22.20
2023-01-11T08:42:38.996Z,22.30
2023-01-11T08:45:10.651Z,22.20
2023-01-11T08:47:42.512Z,22.30
2023-01-11T08:50:14.429Z,22.20
2023-01-11T08:52:46.138Z,22.20
2023-01-11T08:55:17.389Z,22.20
2023-01-11T08:57:50.337Z,22.20
2023-01-11T09:00:22.502Z,22.20
2023-01-11T09:02:53.983Z,22.20
2023-01-11T09:05:25.954Z,22.20
2023-01-11T09:08:00.195Z,22.20
2023-01-11T09:10:31.197Z,22.30
2023-01-11T09:13:02.525Z,22.30
2023-01-11T09:15:40.253Z,22.30
2023-01-11T09:18:12.137Z,22.30
2023-01-11T09:20:43.636Z,22.30
2023-01-11T09:23:14.711Z,22.30
2023-01-11T09:25:46.138Z,22.30
2023-01-11T09:28:17.669Z,22.30
2023-01-11T09:30:49.427Z,22.30
2023-01-11T09:33:20.782Z,22.30
2023-01-11T09:35:57.128Z,22.30
2023-01-11T09:38:30.200Z,22.30
2023-01-11T09:41:07.801Z,22.30
2023-01-11T09:43:41.551Z,22.30
2023-01-11T09:46:15.241Z,22.30
2023-01-11T09:48:54.931Z,22.30
2023-01-11T09:51:28.245Z,22.20
2023-01-11T09:54:00.675Z,22.30
2023-01-11T09:56:34.962Z,22.30
2023-01-11T09:59:24.429Z,22.20
2023-01-11T10:02:01.857Z,22.20
2023-01-11T10:04:58.698Z,22.20
2023-01-11T10:07:39.144Z,22.20
2023-01-11T10:18:37.855Z,22.20
2023-01-11T10:19:34.159Z,22.20
2023-01-11T10:21:49.333Z,22.20
2023-01-11T10:24:26.708Z,22.20
2023-01-11T10:26:59.983Z,22.20
2023-01-11T10:29:40.384Z,22.10
2023-01-11T10:32:40.955Z,22.10
2023-01-11T10:35:38.421Z,22.10
2023-01-11T10:38:27.972Z,22.20
2023-01-11T10:41:18.197Z,22.10
2023-01-11T10:43:53.864Z,22.10
2023-01-11T10:46:35.976Z,22.10
2023-01-11T10:49:34.618Z,22.10
2023-01-11T10:52:31.239Z,22.10
2023-01-11T10:55:03.509Z,22.10
2023-01-11T10:57:39.703Z,22.10
2023-01-11T11:00:29.493Z,22.10
2023-01-11T11:03:18.986Z,22.10
2023-01-11T11:06:07.728Z,22.00
2023-01-11T11:08:51.027Z,22.00
2023-01-11T11:11:34.200Z,22.00
2023-01-11T11:14:21.260Z,22.00
2023-01-11T11:17:11.728Z,22.00
2023-01-11T11:19:42.740Z,22.00
2023-01-11T11:22:19.403Z,22.00
2023-01-11T11:25:11.421Z,22.00
2023-01-11T11:27:57.948Z,22.00
2023-01-11T11:30:44.126Z,21.90
2023-01-11T11:33:37.352Z,21.90
2023-01-11T11:36:14.253Z,21.90
2023-01-11T11:38:49.132Z,21.90
2023-01-11T11:41:21.688Z,21.90
2023-01-11T11:44:01.360Z,21.90
2023-01-11T11:46:38.519Z,21.90
2023-01-11T11:49:15.008Z,21.90
2023-01-11T11:51:48.634Z,21.90
2023-01-11T11:54:22.004Z,22.00
2023-01-11T11:56:53.405Z,21.90
2023-01-11T11:59:26.158Z,21.90
2023-01-11T12:02:05.426Z,21.90
2023-01-11T12:04:47.484Z,21.90
2023-01-11T12:07:27.074Z,21.90
2023-01-11T12:10:06.271Z,21.90
2023-01-11T12:12:38.491Z,21.90
2023-01-11T12:15:22.048Z,21.90
2023-01-11T12:17:53.527Z,21.90
2023-01-11T12:20:29.722Z,21.90
2023-01-11T12:23:22.962Z,21.90
2023-01-11T12:26:18.808Z,21.90
2023-01-11T12:28:58.044Z,21.90
2023-01-11T12:31:40.236Z,21.90
2023-01-11T12:34:34.637Z,21.90
2023-01-11T12:37:21.473Z,21.90
2023-01-11T12:40:03.588Z,21.90
2023-01-11T12:42:53.063Z,21.90
2023-01-11T12:45:45.770Z,21.90
2023-01-11T12:48:25.105Z,21.90
2023-01-11T12:51:04.277Z,21.90
2023-01-11T12:53:49.661Z,21.90
2023-01-11T12:56:40.753Z,21.90
2023-01-11T12:59:31.986Z,21.90
2023-01-11T13:02:05.499Z,21.90
2023-01-11T13:04:45.010Z,21.90
2023-01-11T13:07:21.748Z,21.90
2023-01-11T13:09:55.220Z,21.90
2023-01-11T13:12:34.791Z,21.90
2023-01-11T13:15:20.684Z,21.90
2023-01-11T13:17:58.568Z,21.90
2023-01-11T13:20:48.681Z,21.90
2023-01-11T13:23:12.472Z,21.90
2023-01-11T13:25:56.262Z,21.90
2023-01-11T13:28:43.966Z,21.90
2023-01-11T13:31:19.737Z,21.90
2023-01-11T13:33:54.049Z,21.90
2023-01-11T13:36:27.472Z,21.90
2023-01-11T13:39:29.600Z,21.90
2023-01-11T13:42:06.109Z,21.90
2023-01-11T13:44:51.291Z,21.90
2023-01-11T13:47:30.111Z,21.90
2023-01-11T13:50:28.606Z,21.90
2023-01-11T13:53:11.831Z,21.90
2023-01-11T13:55:52.122Z,21.90
2023-01-11T13:58:27.755Z,21.90
2023-01-11T14:01:10.137Z,21.90
2023-01-11T14:04:11.055Z,21.90
2023-01-11T14:10:00.385Z,21.90
2023-01-11T14:12:46.777Z,21.90
2023-01-11T14:15:39.305Z,21.90
2023-01-11T14:18:19.356Z,21.90
2023-01-11T14:21:00.480Z,21.90
2023-01-11T14:23:57.269Z,21.90
2023-01-11T14:27:03.598Z,21.90
2023-01-11T14:29:56.585Z,21.90
2023-01-11T14:32:41.895Z,21.90
2023-01-11T14:35:40.786Z,21.90
2023-01-11T14:38:32.336Z,21.90
2023-01-11T14:41:19.438Z,21.90
2023-01-11T14:44:16.883Z,21.90
2023-01-11T14:47:11.186Z,21.90
2023-01-11T14:50:21.190Z,21.90
2023-01-11T14:52:55.628Z,21.90
2023-01-11T14:55:34.674Z,21.90
2023-01-11T14:58:25.685Z,21.90
2023-01-11T15:01:02.538Z,21.90
2023-01-11T15:03:45.420Z,21.90
2023-01-11T15:06:22.654Z,21.90
2023-01-11T15:08:56.188Z,21.90
2023-01-11T15:11:35.729Z,21.90
2023-01-11T15:14:28.595Z,22.00
2023-01-11T15:17:27.100Z,21.90
2023-01-11T15:19:56.620Z,21.90
2023-01-11T15:22:32.584Z,21.90
2023-01-11T15:25:17.357Z,22.00
2023-01-11T15:27:48.454Z,21.90
2023-01-11T15:30:33.442Z,22.00
2023-01-11T15:33:23.988Z,22.00
2023-01-11T15:36:04.844Z,21.90
2023-01-11T15:38:57.655Z,22.00
2023-01-11T15:41:55.223Z,21.90
2023-01-11T15:44:47.884Z,22.00
2023-01-11T15:47:21.334Z,21.90
2023-01-11T15:50:29.514Z,21.90
2023-01-11T15:53:23.844Z,21.90
2023-01-11T15:56:21.174Z,21.90
2023-01-11T15:59:21.658Z,21.90
2023-01-11T16:02:07.213Z,21.90
2023-01-11T16:04:40.608Z,21.90
2023-01-11T16:07:47.367Z,21.90
2023-01-11T16:10:37.131Z,21.90
2023-01-11T16:13:13.213Z,21.90
2023-01-11T16:15:58.282Z,21.90
2023-01-11T16:18:31.793Z,21.90
2023-01-11T16:21:08.478Z,22.00
2023-01-11T16:23:39.548Z,22.00
2023-01-11T16:26:10.838Z,22.00
2023-01-11T16:28:44.309Z,21.90
2023-01-11T16:31:15.367Z,21.90
2023-01-11T16:33:48.627Z,22.00
2023-01-11T16:36:24.407Z,22.00
2023-01-11T16:39:06.995Z,21.90
2023-01-11T16:41:58.592Z,21.90
2023-01-11T16:44:42.107Z,22.00
2023-01-11T16:47:17.549Z,22.00
2023-01-11T16:49:53.869Z,21.90
2023-01-11T16:52:37.543Z,22.00
2023-01-11T16:55:16.816Z,21.90
2023-01-11T16:57:50.276Z,21.90
2023-01-11T17:00:34.157Z,22.00
2023-01-11T17:03:20.195Z,22.00
2023-01-11T17:06:05.913Z,22.00
2023-01-11T17:08:39.484Z,22.00
2023-01-11T17:11:36.928Z,22.00
2023-01-11T17:14:26.294Z,22.00
2023-01-11T17:17:02.792Z,21.90
2023-01-11T17:19:35.656Z,22.00
2023-01-11T17:22:20.765Z,21.90
2023-01-11T17:25:08.981Z,21.90
2023-01-11T17:27:45.165Z,21.90
2023-01-11T17:30:25.033Z,21.90
2023-01-11T17:32:59.679Z,21.90
2023-01-11T17:35:32.811Z,21.90
2023-01-11T17:38:06.208Z,21.90
2023-01-11T17:40:41.966Z,21.90
2023-01-11T17:43:45.063Z,22.00
2023-01-11T17:46:25.678Z,21.90
2023-01-11T17:49:00.313Z,21.90
2023-01-11T17:51:33.829Z,22.00
2023-01-11T17:54:04.908Z,21.90
2023-01-11T17:56:42.035Z,21.90
2023-01-11T17:59:34.806Z,21.90
2023-01-11T18:02:16.332Z,21.90
2023-01-11T18:04:48.005Z,21.90
2023-01-11T18:07:21.205Z,22.00
2023-01-11T18:09:54.580Z,21.90
2023-01-11T18:12:28.079Z,22.00
2023-01-11T18:15:07.547Z,22.00
2023-01-11T18:17:44.664Z,22.00
2023-01-11T18:20:26.717Z,22.00
2023-01-11T18:23:00.454Z,22.00
2023-01-11T18:25:36.676Z,22.00
2023-01-11T18:28:25.299Z,22.00
2023-01-11T18:30:58.954Z,22.00
2023-01-11T18:33:32.645Z,22.00
2023-01-11T18:36:06.230Z,22.00
2023-01-11T18:38:38.552Z,22.00
2023-01-11T18:41:28.782Z,22.00
2023-01-11T18:43:59.854Z,21.90
2023-01-11T18:46:31.152Z,22.00
2023-01-11T18:49:02.249Z,21.90
2023-01-11T18:51:35.645Z,21.90
2023-01-11T18:54:07.676Z,21.90
2023-01-11T18:56:38.759Z,21.90
2023-01-11T18:59:09.701Z,22.00
2023-01-11T19:01:54.430Z,21.90
2023-01-11T19:04:14.038Z,22.00
2023-01-11T19:06:45.130Z,22.00
2023-01-11T19:09:16.076Z,22.00
2023-01-11T19:11:48.664Z,22.00
2023-01-11T19:14:18.891Z,22.00
2023-01-11T19:16:49.616Z,22.00
2023-01-11T19:19:20.425Z,22.00
2023-01-11T19:21:51.387Z,22.00
2023-01-11T19:24:22.114Z,22.00
2023-01-11T19:26:53.053Z,22.00
2023-01-11T19:29:25.803Z,22.00
2023-01-11T19:31:59.777Z,22.00
2023-01-11T19:34:30.589Z,22.00
2023-01-11T19:37:01.800Z,22.00
2023-01-11T19:39:32.541Z,22.00
2023-01-11T19:42:04.308Z,22.00
2023-01-11T19:44:36.987Z,22.00
2023-01-11T19:47:12.130Z,22.00
2023-01-11T19:49:41.668Z,22.00
2023-01-11T19:52:18.334Z,22.00
2023-01-11T19:54:49.787Z,22.00
2023-01-11T19:57:22.324Z,22.00
2023-01-11T19:59:53.495Z,22.00
2023-01-11T20:02:24.969Z,22.00
2023-01-11T20:04:56.053Z,21.90
2023-01-11T20:07:27.098Z,21.90
2023-01-11T20:09:58.151Z,21.90
2023-01-11T20:12:29.250Z,21.90
2023-01-11T20:15:01.701Z,21.90
2023-01-11T20:17:33.028Z,21.90
2023-01-11T20:20:04.075Z,21.90
2023-01-11T20:22:35.216Z,21.90
2023-01-11T20:25:07.071Z,22.00
2023-01-11T20:27:38.214Z,22.00
2023-01-11T20:30:13.392Z,22.00
2023-01-11T20:32:44.505Z,22.00
2023-01-11T20:35:15.753Z,22.00
2023-01-11T20:37:46.846Z,22.00
2023-01-11T20:40:18.042Z,22.00
2023-01-11T20:42:49.491Z,22.00
2023-01-11T20:45:20.557Z,22.00
2023-01-11T20:47:51.573Z,22.00
2023-01-11T20:50:22.697Z,22.00
2023-01-11T20:52:54.061Z,22.00
2023-01-11T20:55:25.141Z,22.00
2023-01-11T20:57:56.365Z,22.00
2023-01-11T21:00:27.612Z,22.00
2023-01-11T21:02:58.658Z,22.00
2023-01-11T21:05:29.692Z,22.00
2023-01-11T21:08:00.866Z,21.90
2023-01-11T21:10:31.931Z,21.90
2023-01-11T21:13:04.171Z,21.90
2023-01-11T21:15:35.272Z,21.90
2023-01-11T21:18:06.470Z,21.90
2023-01-11T21:20:37.508Z,21.90
2023-01-11T21:23:08.702Z,21.90
2023-01-11T21:25:39.741Z,21.90
2023-01-11T21:28:10.878Z,21.90
2023-01-11T21:30:41.931Z,21.90
2023-01-11T21:33:13.176Z,21.90
2023-01-11T21:35:44.252Z,21.90
2023-01-11T21:38:15.462Z,21.90
2023-01-11T21:40:46.711Z,21.90
2023-01-11T21:43:18.007Z,21.90
2023-01-11T21:46:00.061Z,21.90
2023-01-11T21:48:31.416Z,21.90
2023-01-11T21:51:04.117Z,21.90
2023-01-11T21:53:36.069Z,21.90
2023-01-11T21:56:08.787Z,21.80
2023-01-11T21:58:39.832Z,21.80
2023-01-11T22:01:14.742Z,21.80
2023-01-11T22:03:45.792Z,21.80
2023-01-11T22:06:21.131Z,21.90
2023-01-11T22:08:52.248Z,21.90
2023-01-11T22:11:23.280Z,21.90
2023-01-11T22:13:54.338Z,21.90
2023-01-11T22:16:25.425Z,21.90
2023-01-11T22:18:56.476Z,21.90
2023-01-11T22:21:28.730Z,21.80
2023-01-11T22:24:01.829Z,21.90
2023-01-11T22:26:34.360Z,21.80
2023-01-11T22:29:15.973Z,21.80
2023-01-11T22:31:58.041Z,21.80
2023-01-11T22:34:29.391Z,21.90
2023-01-11T22:37:00.448Z,21.80
2023-01-11T22:39:31.489Z,21.80
2023-01-11T22:42:02.591Z,21.90
2023-01-11T22:44:33.669Z,21.90
2023-01-11T22:47:05.098Z,21.90
2023-01-11T22:49:36.153Z,21.90
2023-01-11T22:52:07.925Z,21.90
2023-01-11T22:54:39.004Z,21.90
2023-01-11T22:57:09.787Z,22.00
2023-01-11T22:59:40.496Z,22.00
2023-01-11T23:02:11.628Z,22.00
2023-01-11T23:04:42.782Z,22.00
2023-01-11T23:07:13.847Z,22.00
2023-01-11T23:09:44.983Z,22.00
2023-01-11T23:12:33.682Z,21.90
2023-01-11T23:15:04.708Z,21.90
2023-01-11T23:17:35.725Z,21.90
2023-01-11T23:20:06.980Z,21.90
2023-01-11T23:22:38.022Z,21.90
2023-01-11T23:25:10.007Z,21.90
2023-01-11T23:27:41.011Z,21.90
2023-01-11T23:30:13.422Z,21.90
2023-01-11T23:32:44.421Z,21.90
2023-01-11T23:35:16.848Z,21.90
2023-01-11T23:37:47.882Z,21.90
2023-01-11T23:40:18.928Z,21.90
2023-01-11T23:42:50.033Z,21.90
2023-01-11T23:45:21.076Z,21.90
2023-01-11T23:47:52.536Z,21.90
2023-01-11T23:50:23.570Z,21.90
2023-01-11T23:52:56.125Z,21.90
2023-01-11T23:55:27.610Z,21.90
2023-01-11T23:58:10.896Z,21.90
